createdAt,value
2022-08-14T00:00:15.838Z,26.00
2022-08-14T00:05:19.619Z,26.00
2022-08-14T00:10:51.532Z,26.00
2022-08-14T00:15:49.560Z,26.00
2022-08-14T00:20:52.896Z,26.00
2022-08-14T00:26:05.917Z,26.00
2022-08-14T00:31:09.683Z,26.00
2022-08-14T00:36:36.816Z,25.90
2022-08-14T00:41:39.061Z,26.00
2022-08-14T00:46:42.234Z,26.00
2022-08-14T00:51:45.551Z,26.00
2022-08-14T00:56:55.052Z,25.90
2022-08-14T01:02:00.024Z,26.00
2022-08-14T01:07:04.971Z,26.00
2022-08-14T01:12:13.039Z,25.90
2022-08-14T01:17:52.226Z,25.90
2022-08-14T01:22:57.055Z,25.90
2022-08-14T01:28:00.247Z,25.90
2022-08-14T01:33:03.497Z,25.90
2022-08-14T01:38:10.375Z,25.90
2022-08-14T01:43:18.577Z,25.90
2022-08-14T01:48:25.725Z,25.90
2022-08-14T01:53:32.765Z,25.90
2022-08-14T01:58:57.505Z,25.90
2022-08-14T02:04:01.281Z,25.90
2022-08-14T02:09:19.058Z,25.90
2022-08-14T02:14:31.411Z,25.90
2022-08-14T02:19:35.739Z,25.90
2022-08-14T02:24:45.034Z,25.90
2022-08-14T02:29:59.439Z,25.90
2022-08-14T02:35:06.774Z,25.90
2022-08-14T02:40:12.660Z,25.90
2022-08-14T02:45:15.526Z,25.90
2022-08-14T02:50:21.586Z,25.90
2022-08-14T02:55:33.078Z,25.90
2022-08-14T03:00:39.873Z,25.90
2022-08-14T03:05:43.620Z,25.90
2022-08-14T03:10:50.109Z,25.90
2022-08-14T03:15:55.966Z,25.90
2022-08-14T03:21:01.894Z,25.90
2022-08-14T03:26:08.528Z,25.90
2022-08-14T03:31:13.067Z,25.90
2022-08-14T03:37:51.074Z,25.90
2022-08-14T03:41:41.592Z,25.80
2022-08-14T03:46:54.627Z,25.80
2022-08-14T03:52:00.865Z,25.80
2022-08-14T03:57:05.831Z,25.80
2022-08-14T04:02:31.816Z,25.80
2022-08-14T04:07:32.861Z,25.80
2022-08-14T04:12:41.520Z,25.80
2022-08-14T04:17:54.986Z,25.80
2022-08-14T04:22:59.019Z,25.80
2022-08-14T04:28:06.456Z,25.80
2022-08-14T04:33:29.413Z,25.80
2022-08-14T04:38:52.385Z,25.80
2022-08-14T04:43:57.981Z,25.80
2022-08-14T04:49:02.083Z,25.80
2022-08-14T04:54:05.040Z,25.80
2022-08-14T04:59:10.463Z,25.80
2022-08-14T05:04:16.057Z,25.80
2022-08-14T05:09:19.379Z,25.80
2022-08-14T05:14:45.802Z,25.80
2022-08-14T05:21:10.937Z,25.80
2022-08-14T05:25:12.568Z,25.80
2022-08-14T05:30:19.646Z,25.70
2022-08-14T05:35:22.480Z,25.70
2022-08-14T05:40:26.964Z,25.70
2022-08-14T05:45:31.171Z,25.70
2022-08-14T05:50:34.796Z,25.80
2022-08-14T05:55:44.333Z,25.80
2022-08-14T06:00:49.784Z,25.70
2022-08-14T06:05:53.548Z,25.80
2022-08-14T06:11:02.813Z,25.70
2022-08-14T06:16:08.279Z,25.70
2022-08-14T06:21:12.964Z,25.80
2022-08-14T06:26:20.852Z,25.80
2022-08-14T06:31:26.739Z,25.70
2022-08-14T06:36:29.573Z,25.70
2022-08-14T06:41:52.717Z,25.80
2022-08-14T06:46:56.662Z,25.70
2022-08-14T06:52:00.783Z,25.70
2022-08-14T06:57:04.696Z,25.80
2022-08-14T07:02:29.394Z,25.70
2022-08-14T07:07:37.128Z,25.80
2022-08-14T07:13:01.625Z,25.70
2022-08-14T07:18:08.971Z,25.80
2022-08-14T07:23:21.090Z,25.70
2022-08-14T07:28:26.490Z,25.70
2022-08-14T07:33:32.529Z,25.70
2022-08-14T07:38:37.481Z,25.70
2022-08-14T07:43:41.941Z,25.70
2022-08-14T07:48:48.370Z,25.70
2022-08-14T07:53:56.855Z,25.70
2022-08-14T07:59:00.544Z,25.70
2022-08-14T08:04:11.049Z,25.70
2022-08-14T08:09:24.987Z,25.70
2022-08-14T08:14:56.568Z,25.70
2022-08-14T08:19:59.497Z,25.70
2022-08-14T08:25:03.910Z,25.70
2022-08-14T08:30:11.987Z,25.80
2022-08-14T08:35:21.117Z,25.70
2022-08-14T08:40:31.254Z,25.80
2022-08-14T08:45:34.933Z,25.70
2022-08-14T08:55:43.457Z,25.70
2022-08-14T09:00:48.951Z,25.70
2022-08-14T09:05:54.392Z,25.70
2022-08-14T09:10:59.936Z,25.70
2022-08-14T09:16:18.666Z,25.70
2022-08-14T09:21:24.002Z,25.70
2022-08-14T09:26:28.616Z,25.70
2022-08-14T09:31:42.533Z,25.70
2022-08-14T09:37:03.979Z,25.70
2022-08-14T09:42:21.503Z,25.70
2022-08-14T09:47:47.147Z,25.70
2022-08-14T09:52:56.914Z,25.70
2022-08-14T09:58:19.229Z,25.70
2022-08-14T10:03:28.703Z,25.70
2022-08-14T10:08:41.621Z,25.70
2022-08-14T10:13:53.301Z,25.70
2022-08-14T10:19:03.527Z,25.70
2022-08-14T10:24:10.602Z,25.70
2022-08-14T10:29:23.737Z,25.70
2022-08-14T10:34:35.517Z,25.80
2022-08-14T10:39:44.975Z,25.70
2022-08-14T10:45:03.667Z,25.70
2022-08-14T10:50:11.970Z,25.70
2022-08-14T10:55:19.494Z,25.70
2022-08-14T11:00:30.123Z,25.70
2022-08-14T11:05:41.072Z,25.80
2022-08-14T11:10:47.820Z,25.70
2022-08-14T11:15:52.677Z,25.80
2022-08-14T11:20:59.185Z,25.70
2022-08-14T11:26:03.519Z,25.70
2022-08-14T11:31:11.173Z,25.70
2022-08-14T11:36:18.314Z,25.70
2022-08-14T11:41:23.139Z,25.70
2022-08-14T11:46:29.842Z,25.70
2022-08-14T11:51:53.002Z,25.70
2022-08-14T11:56:58.520Z,25.80
2022-08-14T12:02:09.536Z,25.80
2022-08-14T12:07:32.460Z,25.80
2022-08-14T12:12:39.432Z,25.80
2022-08-14T12:17:47.595Z,25.80
2022-08-14T12:22:54.944Z,25.80
2022-08-14T12:28:01.467Z,25.80
2022-08-14T12:33:05.499Z,25.80
2022-08-14T12:38:19.233Z,25.80
2022-08-14T12:43:25.340Z,25.80
2022-08-14T12:48:32.365Z,25.80
2022-08-14T12:53:38.358Z,25.80
2022-08-14T12:58:51.484Z,25.80
2022-08-14T13:04:05.611Z,25.90
2022-08-14T13:09:11.204Z,25.90
2022-08-14T13:14:18.223Z,25.90
2022-08-14T13:19:28.198Z,25.80
2022-08-14T13:24:33.448Z,25.90
2022-08-14T13:29:40.472Z,25.90
2022-08-14T13:34:45.602Z,25.80
2022-08-14T13:39:56.293Z,25.80
2022-08-14T13:45:03.189Z,25.90
2022-08-14T13:50:09.158Z,25.90
2022-08-14T13:55:14.113Z,25.90
2022-08-14T14:00:21.887Z,25.90
2022-08-14T14:05:53.053Z,25.90
2022-08-14T14:10:57.410Z,25.90
2022-08-14T14:16:04.616Z,25.90
2022-08-14T14:21:09.256Z,25.90
2022-08-14T14:26:16.967Z,25.90
2022-08-14T14:31:30.270Z,25.90
2022-08-14T14:36:34.003Z,26.00
2022-08-14T14:41:43.743Z,26.00
2022-08-14T14:46:50.528Z,26.00
2022-08-14T14:51:53.792Z,26.00
2022-08-14T14:56:58.329Z,26.00
2022-08-14T15:02:07.953Z,26.00
2022-08-14T15:07:12.495Z,26.00
2022-08-14T15:12:34.594Z,26.00
2022-08-14T15:17:42.432Z,26.00
2022-08-14T15:22:51.441Z,26.10
2022-08-14T15:27:55.001Z,26.00
2022-08-14T15:32:59.537Z,26.10
2022-08-14T15:38:08.759Z,26.10
2022-08-14T15:43:12.948Z,26.10
2022-08-14T15:48:22.727Z,26.10
2022-08-14T15:53:26.347Z,26.10
2022-08-14T15:58:34.659Z,26.20
2022-08-14T16:03:39.975Z,26.10
2022-08-14T16:08:45.800Z,26.20
2022-08-14T16:13:49.908Z,26.10
2022-08-14T16:18:58.928Z,26.20
2022-08-14T16:24:03.253Z,26.10
2022-08-14T16:29:08.989Z,26.10
2022-08-14T16:34:45.723Z,26.10
2022-08-14T16:39:39.193Z,26.20
2022-08-14T16:44:44.093Z,26.20
2022-08-14T16:50:04.026Z,26.10
2022-08-14T16:55:09.801Z,26.10
2022-08-14T17:00:28.438Z,26.20
2022-08-14T17:05:34.370Z,26.20
2022-08-14T17:10:57.344Z,26.20
2022-08-14T17:16:07.514Z,26.20
2022-08-14T17:21:21.644Z,26.20
2022-08-14T17:26:39.492Z,26.10
2022-08-14T17:31:58.952Z,26.10
2022-08-14T17:37:07.283Z,26.10
2022-08-14T17:42:33.566Z,26.10
2022-08-14T17:47:37.069Z,26.10
2022-08-14T17:52:47.109Z,26.10
2022-08-14T17:57:54.802Z,26.10
2022-08-14T18:02:59.003Z,26.10
2022-08-14T18:08:32.038Z,26.10
2022-08-14T18:13:51.840Z,26.10
2022-08-14T18:18:55.373Z,26.10
2022-08-14T18:24:00.339Z,26.10
2022-08-14T18:29:14.682Z,26.00
2022-08-14T18:34:32.336Z,26.10
2022-08-14T18:40:03.631Z,26.10
2022-08-14T18:45:12.618Z,26.00
2022-08-14T18:50:27.040Z,26.10
2022-08-14T18:55:52.902Z,26.00
2022-08-14T19:00:58.746Z,26.00
2022-08-14T19:06:02.931Z,26.00
2022-08-14T19:11:26.005Z,26.10
2022-08-14T19:16:36.843Z,26.00
2022-08-14T19:21:41.712Z,26.00
2022-08-14T19:26:54.012Z,26.00
2022-08-14T19:31:58.991Z,26.00
2022-08-14T19:37:06.733Z,26.00
2022-08-14T19:42:14.891Z,26.00
2022-08-14T19:47:41.026Z,26.00
2022-08-14T19:52:45.950Z,26.00
2022-08-14T19:57:58.405Z,26.00
2022-08-14T20:03:10.997Z,26.00
2022-08-14T20:09:06.072Z,26.00
2022-08-14T20:13:40.853Z,26.00
2022-08-14T20:18:51.954Z,26.00
2022-08-14T20:24:10.125Z,26.00
2022-08-14T20:29:38.816Z,26.00
2022-08-14T20:34:51.184Z,26.00
2022-08-14T20:39:55.786Z,26.00
2022-08-14T20:45:19.743Z,26.00
2022-08-14T20:50:28.635Z,26.00
2022-08-14T20:55:33.107Z,26.00
2022-08-14T21:00:38.998Z,26.00
2022-08-14T21:05:57.755Z,26.00
2022-08-14T21:11:01.321Z,26.00
2022-08-14T21:16:33.769Z,26.00
2022-08-14T21:21:41.559Z,26.00
2022-08-14T21:26:52.505Z,26.00
2022-08-14T21:32:03.284Z,26.00
2022-08-14T21:37:25.595Z,26.00
2022-08-14T21:42:32.805Z,26.00
2022-08-14T21:47:39.132Z,26.00
2022-08-14T21:52:51.684Z,25.90
2022-08-14T21:58:51.804Z,26.00
2022-08-14T22:03:35.612Z,25.90
2022-08-14T22:08:46.558Z,26.00
2022-08-14T22:14:02.480Z,25.90
2022-08-14T22:19:21.564Z,25.90
2022-08-14T22:24:38.590Z,25.90
2022-08-14T22:29:58.418Z,25.90
2022-08-14T22:35:02.181Z,25.90
2022-08-14T22:40:17.689Z,25.90
2022-08-14T22:45:36.502Z,25.90
2022-08-14T22:50:49.045Z,25.90
2022-08-14T22:55:58.912Z,25.90
2022-08-14T23:01:02.456Z,25.90
2022-08-14T23:07:02.515Z,25.90
2022-08-14T23:11:30.880Z,25.90
2022-08-14T23:16:34.444Z,25.80
2022-08-14T23:21:37.467Z,25.80
2022-08-14T23:26:53.761Z,25.80
2022-08-14T23:31:57.409Z,23.90
2022-08-14T23:37:04.067Z,23.20
2022-08-14T23:42:11.546Z,22.90
2022-08-14T23:47:26.031Z,22.70
2022-08-14T23:52:56.203Z,22.40
2022-08-14T23:57:57.905Z,22.30
